createdAt,value
2022-12-11T00:00:10.017Z,15.40
2022-12-11T00:02:39.751Z,15.40
2022-12-11T00:05:08.897Z,15.10
2022-12-11T00:10:07.104Z,15.40
2022-12-11T00:12:35.343Z,15.20
2022-12-11T00:20:01.851Z,15.40
2022-12-11T00:22:31.428Z,15.30
2022-12-11T00:37:26.680Z,15.30
2022-12-11T00:54:48.583Z,15.30
2022-12-11T00:57:16.784Z,14.90
2022-12-11T01:12:28.555Z,15.20
2022-12-11T01:19:55.538Z,15.20
2022-12-11T01:22:23.948Z,15.30
2022-12-11T01:29:50.740Z,15.20
2022-12-11T01:35:06.961Z,15.20
2022-12-11T01:37:48.759Z,15.50
2022-12-11T01:40:20.594Z,15.20
2022-12-11T01:45:28.988Z,16.00
2022-12-11T01:48:02.459Z,16.30
2022-12-11T01:50:31.707Z,16.50
2022-12-11T01:53:00.387Z,16.60
2022-12-11T02:00:27.127Z,16.80
2022-12-11T02:02:55.480Z,17.00
2022-12-11T02:07:56.689Z,16.90
2022-12-11T02:10:34.029Z,16.80
2022-12-11T02:13:08.703Z,16.70
2022-12-11T02:15:43.663Z,16.70
2022-12-11T02:18:21.220Z,16.60
2022-12-11T02:20:55.603Z,16.60
2022-12-11T02:23:59.206Z,17.40
2022-12-11T02:26:44.359Z,16.50
2022-12-11T02:29:19.298Z,16.50
2022-12-11T02:31:53.056Z,16.50
2022-12-11T02:34:24.927Z,16.50
2022-12-11T02:36:56.827Z,16.60
2022-12-11T02:39:27.252Z,16.60
2022-12-11T02:41:57.384Z,16.60
2022-12-11T02:44:28.389Z,16.60
2022-12-11T02:46:57.216Z,16.60
2022-12-11T02:49:27.896Z,16.50
2022-12-11T02:51:58.020Z,16.50
2022-12-11T02:54:27.477Z,16.50
2022-12-11T02:57:01.609Z,16.40
2022-12-11T02:59:36.544Z,16.30
2022-12-11T03:02:06.007Z,16.20
2022-12-11T03:04:36.419Z,16.10
2022-12-11T03:07:12.322Z,16.10
2022-12-11T03:12:13.286Z,15.90
2022-12-11T03:14:44.627Z,15.90
2022-12-11T03:17:17.407Z,15.90
2022-12-11T03:19:52.481Z,15.80
2022-12-11T03:22:25.539Z,15.70
2022-12-11T03:25:00.132Z,15.80
2022-12-11T03:27:31.411Z,15.70
2022-12-11T03:30:05.838Z,15.70
2022-12-11T03:32:39.396Z,15.70
2022-12-11T03:35:13.976Z,15.70
2022-12-11T03:37:44.693Z,15.60
2022-12-11T03:40:17.787Z,15.70
2022-12-11T03:42:49.649Z,15.70
2022-12-11T03:45:22.145Z,15.60
2022-12-11T03:47:52.268Z,15.60
2022-12-11T03:50:21.489Z,15.60
2022-12-11T03:55:20.412Z,15.50
2022-12-11T04:00:22.129Z,15.40
2022-12-11T04:03:13.653Z,15.50
2022-12-11T04:15:38.438Z,15.30
2022-12-11T04:18:24.118Z,15.60
2022-12-11T04:21:12.122Z,15.30
2022-12-11T04:31:24.912Z,15.20
2022-12-11T04:33:53.330Z,14.80
2022-12-11T04:46:17.868Z,15.20
2022-12-11T04:48:51.187Z,15.20
2022-12-11T04:58:48.364Z,15.10
2022-12-11T05:01:18.187Z,15.10
2022-12-11T05:03:48.314Z,15.20
2022-12-11T05:06:16.507Z,15.20
2022-12-11T05:08:45.308Z,15.30
2022-12-11T05:11:15.382Z,15.40
2022-12-11T05:13:43.869Z,15.40
2022-12-11T05:16:14.323Z,15.50
2022-12-11T05:21:14.195Z,15.60
2022-12-11T05:23:43.152Z,15.60
2022-12-11T05:26:15.239Z,15.60
2022-12-11T05:31:15.065Z,15.70
2022-12-11T05:36:17.168Z,15.70
2022-12-11T05:41:16.830Z,15.80
2022-12-11T05:46:15.232Z,15.80
2022-12-11T05:51:14.160Z,15.80
2022-12-11T05:53:43.369Z,15.80
2022-12-11T05:56:13.929Z,16.60
2022-12-11T05:58:43.330Z,15.90
2022-12-11T06:01:14.128Z,16.00
2022-12-11T06:08:40.855Z,15.90
2022-12-11T06:16:08.281Z,16.40
2022-12-11T06:18:37.986Z,16.00
2022-12-11T06:21:16.344Z,16.20
2022-12-11T06:23:49.283Z,16.00
2022-12-11T06:26:18.658Z,16.00
2022-12-11T06:28:47.742Z,16.00
2022-12-11T06:31:16.339Z,15.80
2022-12-11T06:33:45.019Z,16.00
2022-12-11T06:36:15.737Z,16.00
2022-12-11T06:41:14.585Z,16.10
2022-12-11T06:43:43.091Z,16.10
2022-12-11T06:46:14.125Z,16.10
2022-12-11T06:51:13.582Z,16.40
2022-12-11T06:56:12.416Z,16.20
2022-12-11T06:58:42.445Z,16.10
2022-12-11T07:01:17.299Z,16.10
2022-12-11T07:06:15.364Z,16.20
2022-12-11T07:11:14.176Z,16.10
2022-12-11T07:13:44.139Z,16.00
2022-12-11T07:16:13.979Z,16.00
2022-12-11T07:18:43.830Z,15.70
2022-12-11T07:21:14.184Z,15.90
2022-12-11T07:23:43.044Z,16.00
2022-12-11T07:26:12.993Z,16.00
2022-12-11T07:31:12.987Z,16.10
2022-12-11T07:36:12.412Z,16.10
2022-12-11T07:41:12.198Z,15.80
2022-12-11T07:46:13.254Z,15.70
2022-12-11T07:48:43.302Z,15.60
2022-12-11T07:51:12.368Z,15.60
2022-12-11T07:56:09.820Z,15.60
2022-12-11T08:01:07.891Z,15.60
2022-12-11T08:03:37.523Z,15.80
2022-12-11T08:06:06.770Z,16.00
2022-12-11T08:20:58.773Z,16.10
2022-12-11T08:23:28.486Z,16.50
2022-12-11T08:30:55.607Z,16.10
2022-12-11T08:38:25.558Z,16.00
2022-12-11T08:55:48.336Z,16.20
2022-12-11T09:10:41.038Z,16.30
2022-12-11T09:13:10.795Z,16.30
2022-12-11T09:15:42.649Z,16.30
2022-12-11T09:23:09.553Z,16.60
2022-12-11T09:25:41.995Z,16.70
2022-12-11T09:28:11.607Z,16.20
2022-12-11T09:30:40.354Z,16.30
2022-12-11T09:43:14.157Z,16.40
2022-12-11T09:45:43.901Z,16.40
2022-12-11T09:48:14.941Z,16.30
2022-12-11T09:53:16.849Z,16.30
2022-12-11T09:55:51.247Z,16.20
2022-12-11T09:58:27.928Z,16.20
2022-12-11T10:01:04.574Z,16.10
2022-12-11T10:03:46.694Z,16.00
2022-12-11T10:06:22.403Z,16.00
2022-12-11T10:09:02.301Z,15.90
2022-12-11T10:11:56.882Z,15.90
2022-12-11T10:14:36.765Z,15.90
2022-12-11T10:17:13.770Z,15.90
2022-12-11T10:19:43.800Z,16.00
2022-12-11T10:22:15.514Z,16.00
2022-12-11T10:27:36.847Z,16.20
2022-12-11T10:30:16.523Z,16.30
2022-12-11T10:32:53.215Z,16.40
2022-12-11T10:35:32.363Z,16.40
2022-12-11T10:38:12.795Z,16.50
2022-12-11T10:40:44.220Z,16.50
2022-12-11T10:48:13.331Z,16.50
2022-12-11T10:53:22.497Z,16.60
2022-12-11T10:55:51.688Z,16.60
2022-12-11T10:58:22.140Z,16.60
2022-12-11T11:01:05.018Z,16.60
2022-12-11T11:03:37.035Z,16.60
2022-12-11T11:06:16.419Z,16.60
2022-12-11T11:08:46.787Z,16.70
2022-12-11T11:11:34.409Z,17.00
2022-12-11T11:14:08.661Z,16.80
2022-12-11T11:16:39.292Z,16.80
2022-12-11T11:19:09.196Z,16.80
2022-12-11T11:21:37.552Z,17.00
2022-12-11T11:27:11.171Z,17.00
2022-12-11T11:29:30.240Z,17.00
2022-12-11T11:34:30.940Z,17.00
2022-12-11T11:37:05.632Z,17.10
2022-12-11T11:39:38.724Z,17.00
2022-12-11T11:42:14.895Z,17.10
2022-12-11T11:44:46.920Z,17.10
2022-12-11T11:47:19.680Z,17.10
2022-12-11T11:49:56.299Z,17.10
2022-12-11T11:52:31.826Z,17.20
2022-12-11T11:55:10.304Z,17.20
2022-12-11T11:57:44.825Z,17.30
2022-12-11T12:00:21.059Z,17.50
2022-12-11T12:05:36.393Z,17.30
2022-12-11T12:08:11.658Z,17.30
2022-12-11T12:10:47.962Z,17.20
2022-12-11T12:13:48.669Z,17.20
2022-12-11T12:16:51.599Z,17.20
2022-12-11T12:19:20.576Z,16.70
2022-12-11T12:21:55.067Z,17.30
2022-12-11T12:24:35.632Z,17.90
2022-12-11T12:27:50.600Z,17.80
2022-12-11T12:30:15.024Z,17.30
2022-12-11T12:32:58.762Z,17.30
2022-12-11T12:35:36.776Z,17.20
2022-12-11T12:38:15.249Z,17.20
2022-12-11T12:40:56.802Z,17.20
2022-12-11T12:43:44.938Z,17.20
2022-12-11T12:46:25.413Z,17.20
2022-12-11T12:48:56.558Z,17.20
2022-12-11T12:53:58.834Z,17.20
2022-12-11T12:56:28.934Z,17.10
2022-12-11T12:58:56.928Z,17.20
2022-12-11T13:01:27.814Z,17.20
2022-12-11T13:03:59.182Z,17.20
2022-12-11T13:06:35.221Z,16.90
2022-12-11T13:09:19.089Z,17.30
2022-12-11T13:11:50.220Z,17.20
2022-12-11T13:14:29.661Z,17.40
2022-12-11T13:17:24.014Z,17.20
2022-12-11T13:20:05.398Z,17.20
2022-12-11T13:22:34.181Z,17.40
2022-12-11T13:25:22.898Z,17.20
2022-12-11T13:30:26.456Z,17.80
2022-12-11T13:33:03.864Z,17.20
2022-12-11T13:35:33.869Z,17.30
2022-12-11T13:38:04.474Z,17.20
2022-12-11T13:40:40.860Z,16.70
2022-12-11T13:43:19.242Z,17.30
2022-12-11T13:45:50.966Z,17.20
2022-12-11T13:48:28.622Z,17.20
2022-12-11T13:50:58.944Z,17.30
2022-12-11T13:56:02.746Z,17.50
2022-12-11T13:58:35.270Z,17.20
2022-12-11T14:01:11.200Z,17.10
2022-12-11T14:03:41.905Z,17.20
2022-12-11T14:06:18.309Z,17.40
2022-12-11T14:08:51.864Z,17.20
2022-12-11T14:11:28.057Z,17.20
2022-12-11T14:13:58.942Z,20.30
2022-12-11T14:16:28.684Z,17.20
2022-12-11T14:19:02.079Z,17.20
2022-12-11T14:21:31.271Z,17.50
2022-12-11T14:24:05.386Z,17.10
2022-12-11T14:26:38.665Z,17.10
2022-12-11T14:31:38.495Z,17.10
2022-12-11T14:34:13.902Z,18.00
2022-12-11T14:36:44.187Z,17.10
2022-12-11T14:39:15.622Z,17.10
2022-12-11T14:41:50.266Z,17.10
2022-12-11T14:44:22.733Z,17.20
2022-12-11T14:46:55.377Z,17.10
2022-12-11T14:49:28.616Z,17.10
2022-12-11T14:51:59.686Z,17.10
2022-12-11T14:54:33.305Z,16.90
2022-12-11T14:57:06.646Z,17.10
2022-12-11T14:59:40.611Z,17.10
2022-12-11T15:02:28.926Z,17.10
2022-12-11T15:05:20.395Z,17.40
2022-12-11T15:07:58.779Z,17.20
2022-12-11T15:10:33.426Z,17.10
2022-12-11T15:13:03.683Z,17.10
2022-12-11T15:15:38.998Z,17.20
2022-12-11T15:18:22.891Z,17.10
2022-12-11T15:20:54.111Z,17.20
2022-12-11T15:25:56.797Z,17.30
2022-12-11T15:28:30.493Z,17.10
2022-12-11T15:31:01.252Z,17.10
2022-12-11T15:36:04.780Z,17.10
2022-12-11T15:38:39.692Z,17.10
2022-12-11T15:41:12.488Z,17.10
2022-12-11T15:43:42.528Z,17.10
2022-12-11T15:46:10.487Z,17.10
2022-12-11T15:51:07.807Z,17.10
2022-12-11T16:01:03.574Z,17.10
2022-12-11T16:03:31.564Z,17.10
2022-12-11T16:18:26.501Z,17.00
2022-12-11T16:25:52.248Z,16.60
2022-12-11T16:28:21.931Z,16.90
2022-12-11T16:30:50.889Z,16.90
2022-12-11T16:35:50.105Z,17.10
2022-12-11T16:53:14.608Z,17.10
2022-12-11T17:08:11.472Z,17.00
2022-12-11T17:10:42.111Z,16.90
2022-12-11T17:15:41.876Z,16.80
2022-12-11T17:20:41.868Z,16.80
2022-12-11T17:23:11.868Z,16.80
2022-12-11T17:25:41.197Z,16.80
2022-12-11T17:28:10.172Z,16.40
2022-12-11T17:30:41.495Z,17.10
2022-12-11T17:40:41.074Z,17.50
2022-12-11T17:45:42.864Z,17.50
2022-12-11T17:50:41.641Z,17.70
2022-12-11T17:53:10.770Z,17.80
2022-12-11T17:55:52.143Z,17.70
2022-12-11T17:58:22.780Z,17.60
2022-12-11T18:00:55.869Z,17.50
2022-12-11T18:05:54.647Z,17.30
2022-12-11T18:08:23.374Z,17.40
2022-12-11T18:10:53.464Z,17.30
2022-12-11T18:13:21.877Z,17.10
2022-12-11T18:16:00.929Z,17.00
2022-12-11T18:18:29.839Z,16.90
2022-12-11T18:23:28.077Z,17.00
2022-12-11T18:25:58.256Z,16.80
2022-12-11T18:43:20.846Z,17.30
2022-12-11T18:50:47.327Z,16.70
2022-12-11T18:53:16.168Z,16.40
2022-12-11T18:55:46.523Z,17.10
2022-12-11T18:58:16.699Z,16.60
2022-12-11T19:00:46.982Z,16.70
2022-12-11T19:03:16.272Z,17.10
2022-12-11T19:05:45.483Z,17.00
2022-12-11T19:08:16.543Z,16.50
2022-12-11T19:10:48.057Z,16.70
2022-12-11T19:13:28.630Z,17.10
2022-12-11T19:15:59.013Z,16.60
2022-12-11T19:26:11.110Z,16.00
2022-12-11T19:31:12.313Z,16.60
2022-12-11T19:33:41.412Z,16.60
2022-12-11T19:36:12.246Z,16.90
2022-12-11T19:38:42.487Z,17.00
2022-12-11T19:41:13.583Z,17.10
2022-12-11T19:46:12.651Z,17.30
2022-12-11T19:48:42.122Z,17.10
2022-12-11T19:51:13.107Z,17.10
2022-12-11T19:53:42.216Z,17.00
2022-12-11T19:58:39.738Z,16.90
2022-12-11T20:01:08.827Z,16.90
2022-12-11T20:03:38.584Z,16.80
2022-12-11T20:06:10.260Z,17.50
2022-12-11T20:11:18.780Z,16.90
2022-12-11T20:16:17.543Z,17.00
2022-12-11T20:18:47.295Z,16.80
2022-12-11T20:21:17.588Z,16.60
2022-12-11T20:26:16.400Z,16.80
2022-12-11T20:31:19.995Z,16.70
2022-12-11T20:33:50.458Z,16.70
2022-12-11T20:36:19.377Z,16.70
2022-12-11T20:41:18.943Z,16.70
2022-12-11T20:46:17.807Z,16.70
2022-12-11T20:48:46.425Z,16.70
2022-12-11T20:51:23.899Z,16.70
2022-12-11T20:53:58.680Z,17.20
2022-12-11T20:56:29.678Z,17.10
2022-12-11T21:01:30.632Z,17.20
2022-12-11T21:03:59.330Z,17.20
2022-12-11T21:06:31.657Z,17.20
2022-12-11T21:09:01.129Z,17.20
2022-12-11T21:18:56.403Z,17.20
2022-12-11T21:21:25.787Z,17.20
2022-12-11T21:23:55.520Z,17.60
2022-12-11T21:41:19.024Z,17.00
2022-12-11T21:46:37.163Z,17.50
2022-12-11T21:51:40.390Z,16.60
2022-12-11T21:54:14.543Z,16.70
2022-12-11T21:56:44.251Z,16.90
2022-12-11T21:59:12.518Z,16.70
2022-12-11T22:01:43.876Z,16.70
2022-12-11T22:04:13.405Z,16.90
2022-12-11T22:11:45.173Z,16.80
2022-12-11T22:14:14.666Z,16.60
2022-12-11T22:21:41.066Z,16.40
2022-12-11T22:24:09.716Z,16.30
2022-12-11T22:29:07.872Z,16.30
2022-12-11T22:39:02.189Z,16.10
2022-12-11T22:41:32.275Z,16.10
2022-12-11T22:44:00.443Z,16.10
2022-12-11T22:46:32.372Z,16.00
2022-12-11T23:01:24.821Z,15.90
2022-12-11T23:03:54.663Z,16.30
2022-12-11T23:06:25.968Z,16.00
2022-12-11T23:11:25.943Z,15.80
2022-12-11T23:21:23.100Z,15.80
2022-12-11T23:23:51.508Z,15.80
2022-12-11T23:26:20.626Z,15.90
2022-12-11T23:28:49.227Z,15.80
2022-12-11T23:31:18.389Z,15.80
2022-12-11T23:33:46.626Z,15.80
2022-12-11T23:38:49.561Z,15.60
2022-12-11T23:46:20.217Z,15.60
2022-12-11T23:51:20.577Z,15.70
2022-12-11T23:53:50.675Z,15.60
2022-12-11T23:56:19.871Z,15.60
